This is the latest recevied weather packets stored in our database for station/object KB1ZFK. If no packets are shown the sender has not sent any weather packets the latest 10 day(s).
| Time | Temp. | Humidity | Pressure | Rain* | Wind** | Luminosity | Snow |
|---|---|---|---|---|---|---|---|
| 1778089366 | 16.67° C | 89% | 1007.1 hPa | 1.27 mm | - | 59 W/m² | - |
| 1778089063 | 16.67° C | 88% | 1007.1 hPa | 0 mm | - | 62 W/m² | - |
| 1778088760 | 17.22° C | 85% | 1007.1 hPa | 0 mm | - | 71 W/m² | - |
| 1778088457 | 17.78° C | 81% | 1007.2 hPa | 0 mm | - | 42 W/m² | - |
| 1778088153 | 18.33° C | 79% | 1007 hPa | 0 mm | - | 52 W/m² | - |
| 1778087851 | 18.33° C | 75% | 1006.9 hPa | 0 mm | - | 75 W/m² | - |
| 1778087548 | 18.89° C | 73% | 1007 hPa | 0 mm | - | 55 W/m² | - |
| 1778087246 | 19.44° C | 71% | 1006.9 hPa | 0 mm | - | 48 W/m² | - |
| 1778086942 | 19.44° C | 70% | 1006.7 hPa | 0 mm | - | 66 W/m² | - |
| 1778086641 | 20° C | 69% | 1007.1 hPa | 0 mm | - | 94 W/m² | - |
| 1778086337 | 20° C | 68% | 1006.8 hPa | 0 mm | - | 107 W/m² | - |
| 1778086035 | 20° C | 68% | 1006.8 hPa | 0 mm | - | 98 W/m² | - |
| 1778085732 | 20° C | 67% | 1007.1 hPa | 0 mm | - | 102 W/m² | - |
| 1778085428 | 20° C | 68% | 1006.7 hPa | 0 mm | - | 142 W/m² | - |
| 1778085123 | 20° C | 68% | 1007 hPa | 0 mm | - | 127 W/m² | - |
| 1778084819 | 20° C | 69% | 1006.9 hPa | 0 mm | - | 95 W/m² | - |
| 1778084517 | 20° C | 69% | 1006.8 hPa | 0 mm | - | 81 W/m² | - |
| 1778084214 | 20° C | 72% | 1007.1 hPa | 0 mm | - | 92 W/m² | - |
| 1778083910 | 20° C | 72% | 1007.5 hPa | 0 mm | - | 91 W/m² | - |
| 1778083608 | 20° C | 71% | 1007.2 hPa | 0 mm | - | 106 W/m² | - |
| 1778083305 | 20° C | 71% | 1007.4 hPa | 0 mm | - | 105 W/m² | - |
| 1778083004 | 20° C | 71% | 1007.5 hPa | 0 mm | - | 120 W/m² | - |
| 1778082700 | 19.44° C | 72% | 1008 hPa | 0 mm | - | 84 W/m² | - |
| 1778081562 | 19.44° C | 73% | 1007.7 hPa | 0 mm | - | 108 W/m² | - |
| 1778081259 | 19.44° C | 72% | 1008.1 hPa | 0 mm | - | 95 W/m² | - |
* Rain latest hour (hover to see other rain measurements)
** Current wind speed in m/s (hover to see current wind gust speed)